sensor_id;sensor_type;location;lat;lon;timestamp;P1;durP1;ratioP1;P2;durP2;ratioP2
20095;SDS011;10207;50.942;6.900;2023-07-31T00:00:14;8.90;;;3.40;;
20095;SDS011;10207;50.942;6.900;2023-07-31T00:02:41;11.23;;;3.47;;
20095;SDS011;10207;50.942;6.900;2023-07-31T00:05:08;7.93;;;2.88;;
20095;SDS011;10207;50.942;6.900;2023-07-31T00:07:34;8.32;;;2.80;;
20095;SDS011;10207;50.942;6.900;2023-07-31T00:10:00;7.47;;;3.33;;
20095;SDS011;10207;50.942;6.900;2023-07-31T00:12:26;7.57;;;3.00;;
20095;SDS011;10207;50.942;6.900;2023-07-31T00:14:52;6.53;;;3.13;;
20095;SDS011;10207;50.942;6.900;2023-07-31T00:17:18;6.80;;;3.08;;
20095;SDS011;10207;50.942;6.900;2023-07-31T00:19:44;5.63;;;3.08;;
20095;SDS011;10207;50.942;6.900;2023-07-31T00:22:12;10.70;;;3.05;;
20095;SDS011;10207;50.942;6.900;2023-07-31T00:24:37;8.73;;;2.72;;
20095;SDS011;10207;50.942;6.900;2023-07-31T00:27:04;8.57;;;3.70;;
20095;SDS011;10207;50.942;6.900;2023-07-31T00:29:30;9.13;;;3.45;;
20095;SDS011;10207;50.942;6.900;2023-07-31T00:31:56;10.38;;;3.35;;
20095;SDS011;10207;50.942;6.900;2023-07-31T00:34:22;10.20;;;3.20;;
20095;SDS011;10207;50.942;6.900;2023-07-31T00:36:48;11.13;;;3.85;;
20095;SDS011;10207;50.942;6.900;2023-07-31T00:39:16;7.43;;;3.03;;
20095;SDS011;10207;50.942;6.900;2023-07-31T00:41:44;7.22;;;2.92;;
20095;SDS011;10207;50.942;6.900;2023-07-31T00:44:10;7.97;;;2.70;;
20095;SDS011;10207;50.942;6.900;2023-07-31T00:46:36;5.78;;;2.53;;
20095;SDS011;10207;50.942;6.900;2023-07-31T00:49:02;8.40;;;2.40;;
20095;SDS011;10207;50.942;6.900;2023-07-31T00:51:28;7.55;;;2.70;;
20095;SDS011;10207;50.942;6.900;2023-07-31T00:53:56;7.93;;;2.83;;
20095;SDS011;10207;50.942;6.900;2023-07-31T00:56:22;6.40;;;2.42;;
20095;SDS011;10207;50.942;6.900;2023-07-31T00:58:48;8.00;;;2.83;;
20095;SDS011;10207;50.942;6.900;2023-07-31T01:01:14;7.22;;;2.55;;
20095;SDS011;10207;50.942;6.900;2023-07-31T01:03:40;5.95;;;2.40;;
20095;SDS011;10207;50.942;6.900;2023-07-31T01:08:37;7.50;;;2.25;;
20095;SDS011;10207;50.942;6.900;2023-07-31T01:11:07;8.65;;;2.45;;
20095;SDS011;10207;50.942;6.900;2023-07-31T01:13:35;6.90;;;2.88;;
20095;SDS011;10207;50.942;6.900;2023-07-31T01:16:01;6.03;;;2.60;;
20095;SDS011;10207;50.942;6.900;2023-07-31T01:18:27;4.97;;;1.92;;
20095;SDS011;10207;50.942;6.900;2023-07-31T01:21:02;13.73;;;2.53;;
20095;SDS011;10207;50.942;6.900;2023-07-31T01:23:40;6.30;;;2.50;;
20095;SDS011;10207;50.942;6.900;2023-07-31T01:26:14;6.82;;;2.30;;
20095;SDS011;10207;50.942;6.900;2023-07-31T01:28:55;5.43;;;1.88;;
20095;SDS011;10207;50.942;6.900;2023-07-31T01:31:25;8.50;;;2.45;;
20095;SDS011;10207;50.942;6.900;2023-07-31T01:33:53;7.28;;;2.30;;
20095;SDS011;10207;50.942;6.900;2023-07-31T01:36:19;4.13;;;1.75;;
20095;SDS011;10207;50.942;6.900;2023-07-31T01:38:45;6.07;;;2.78;;
20095;SDS011;10207;50.942;6.900;2023-07-31T01:41:11;6.63;;;2.65;;
20095;SDS011;10207;50.942;6.900;2023-07-31T01:43:37;9.50;;;2.70;;
20095;SDS011;10207;50.942;6.900;2023-07-31T01:46:04;6.82;;;2.28;;
20095;SDS011;10207;50.942;6.900;2023-07-31T01:48:30;8.00;;;2.95;;
20095;SDS011;10207;50.942;6.900;2023-07-31T01:51:01;10.63;;;2.53;;
20095;SDS011;10207;50.942;6.900;2023-07-31T01:53:27;6.70;;;2.47;;
20095;SDS011;10207;50.942;6.900;2023-07-31T01:55:53;6.57;;;2.60;;
20095;SDS011;10207;50.942;6.900;2023-07-31T01:58:19;7.63;;;2.47;;
20095;SDS011;10207;50.942;6.900;2023-07-31T02:00:46;5.00;;;2.20;;
20095;SDS011;10207;50.942;6.900;2023-07-31T02:03:12;4.18;;;1.90;;
20095;SDS011;10207;50.942;6.900;2023-07-31T02:05:44;5.60;;;2.22;;
20095;SDS011;10207;50.942;6.900;2023-07-31T02:08:10;7.22;;;2.50;;
20095;SDS011;10207;50.942;6.900;2023-07-31T02:10:36;6.60;;;1.92;;
20095;SDS011;10207;50.942;6.900;2023-07-31T02:13:02;7.15;;;2.47;;
20095;SDS011;10207;50.942;6.900;2023-07-31T02:15:29;5.38;;;2.20;;
20095;SDS011;10207;50.942;6.900;2023-07-31T02:17:56;5.32;;;2.10;;
20095;SDS011;10207;50.942;6.900;2023-07-31T02:20:22;6.35;;;3.28;;
20095;SDS011;10207;50.942;6.900;2023-07-31T02:22:48;6.03;;;2.05;;
20095;SDS011;10207;50.942;6.900;2023-07-31T02:25:14;6.15;;;2.25;;
20095;SDS011;10207;50.942;6.900;2023-07-31T02:27:40;10.50;;;2.28;;
20095;SDS011;10207;50.942;6.900;2023-07-31T02:30:06;6.50;;;2.75;;
20095;SDS011;10207;50.942;6.900;2023-07-31T02:32:32;5.63;;;2.60;;
20095;SDS011;10207;50.942;6.900;2023-07-31T02:34:58;5.63;;;2.40;;
20095;SDS011;10207;50.942;6.900;2023-07-31T02:37:25;12.00;;;2.80;;
20095;SDS011;10207;50.942;6.900;2023-07-31T02:39:52;10.13;;;3.13;;
20095;SDS011;10207;50.942;6.900;2023-07-31T02:42:17;6.20;;;2.35;;
20095;SDS011;10207;50.942;6.900;2023-07-31T02:44:43;9.00;;;2.55;;
20095;SDS011;10207;50.942;6.900;2023-07-31T02:47:09;7.10;;;2.40;;
20095;SDS011;10207;50.942;6.900;2023-07-31T02:49:35;10.38;;;2.55;;
20095;SDS011;10207;50.942;6.900;2023-07-31T02:52:01;7.18;;;2.50;;
20095;SDS011;10207;50.942;6.900;2023-07-31T02:54:27;11.73;;;3.33;;
20095;SDS011;10207;50.942;6.900;2023-07-31T02:56:53;7.25;;;2.83;;
20095;SDS011;10207;50.942;6.900;2023-07-31T02:59:21;7.25;;;2.88;;
20095;SDS011;10207;50.942;6.900;2023-07-31T03:01:47;9.05;;;2.72;;
20095;SDS011;10207;50.942;6.900;2023-07-31T03:04:13;6.35;;;2.33;;
20095;SDS011;10207;50.942;6.900;2023-07-31T03:06:39;5.18;;;2.90;;
20095;SDS011;10207;50.942;6.900;2023-07-31T03:09:05;9.65;;;2.75;;
20095;SDS011;10207;50.942;6.900;2023-07-31T03:11:31;6.55;;;2.22;;
20095;SDS011;10207;50.942;6.900;2023-07-31T03:13:57;9.30;;;3.30;;
20095;SDS011;10207;50.942;6.900;2023-07-31T03:16:23;5.93;;;2.45;;
20095;SDS011;10207;50.942;6.900;2023-07-31T03:18:49;15.63;;;3.70;;
20095;SDS011;10207;50.942;6.900;2023-07-31T03:21:16;9.73;;;2.85;;
20095;SDS011;10207;50.942;6.900;2023-07-31T03:23:41;7.38;;;3.00;;
20095;SDS011;10207;50.942;6.900;2023-07-31T03:26:09;7.75;;;2.97;;
20095;SDS011;10207;50.942;6.900;2023-07-31T03:28:35;10.27;;;3.13;;
20095;SDS011;10207;50.942;6.900;2023-07-31T03:31:01;8.75;;;2.97;;
20095;SDS011;10207;50.942;6.900;2023-07-31T03:33:29;8.70;;;2.95;;
20095;SDS011;10207;50.942;6.900;2023-07-31T03:35:55;10.00;;;2.67;;
20095;SDS011;10207;50.942;6.900;2023-07-31T03:38:21;10.73;;;3.17;;
20095;SDS011;10207;50.942;6.900;2023-07-31T03:40:48;9.43;;;3.22;;
20095;SDS011;10207;50.942;6.900;2023-07-31T03:43:14;11.27;;;3.72;;
20095;SDS011;10207;50.942;6.900;2023-07-31T03:45:42;8.07;;;3.58;;
20095;SDS011;10207;50.942;6.900;2023-07-31T03:48:08;8.25;;;2.97;;
20095;SDS011;10207;50.942;6.900;2023-07-31T03:50:34;8.90;;;2.58;;
20095;SDS011;10207;50.942;6.900;2023-07-31T03:53:00;9.65;;;2.90;;
20095;SDS011;10207;50.942;6.900;2023-07-31T03:55:26;7.85;;;4.35;;
20095;SDS011;10207;50.942;6.900;2023-07-31T03:57:52;11.18;;;3.75;;
20095;SDS011;10207;50.942;6.900;2023-07-31T04:00:18;8.07;;;3.10;;
20095;SDS011;10207;50.942;6.900;2023-07-31T04:02:44;10.38;;;3.80;;
20095;SDS011;10207;50.942;6.900;2023-07-31T04:05:10;7.22;;;3.92;;
20095;SDS011;10207;50.942;6.900;2023-07-31T04:07:36;9.27;;;3.22;;
20095;SDS011;10207;50.942;6.900;2023-07-31T04:10:02;7.97;;;3.10;;
20095;SDS011;10207;50.942;6.900;2023-07-31T04:12:29;6.25;;;3.28;;
20095;SDS011;10207;50.942;6.900;2023-07-31T04:14:54;7.43;;;3.10;;
20095;SDS011;10207;50.942;6.900;2023-07-31T04:17:20;10.60;;;3.70;;
20095;SDS011;10207;50.942;6.900;2023-07-31T04:19:46;9.50;;;3.47;;
20095;SDS011;10207;50.942;6.900;2023-07-31T04:22:12;7.63;;;3.33;;
20095;SDS011;10207;50.942;6.900;2023-07-31T04:24:38;10.77;;;3.30;;
20095;SDS011;10207;50.942;6.900;2023-07-31T04:27:04;5.70;;;3.15;;
20095;SDS011;10207;50.942;6.900;2023-07-31T04:29:30;8.07;;;3.63;;
20095;SDS011;10207;50.942;6.900;2023-07-31T04:31:56;9.43;;;3.20;;
20095;SDS011;10207;50.942;6.900;2023-07-31T04:34:22;8.50;;;3.65;;
20095;SDS011;10207;50.942;6.900;2023-07-31T04:36:48;8.35;;;3.70;;
20095;SDS011;10207;50.942;6.900;2023-07-31T04:39:14;5.85;;;2.95;;
20095;SDS011;10207;50.942;6.900;2023-07-31T04:41:40;11.38;;;3.45;;
20095;SDS011;10207;50.942;6.900;2023-07-31T04:44:06;9.75;;;4.28;;
20095;SDS011;10207;50.942;6.900;2023-07-31T04:46:32;7.97;;;4.00;;
20095;SDS011;10207;50.942;6.900;2023-07-31T04:48:57;7.80;;;3.45;;
20095;SDS011;10207;50.942;6.900;2023-07-31T04:51:23;8.30;;;3.20;;
20095;SDS011;10207;50.942;6.900;2023-07-31T04:53:50;6.30;;;3.35;;
20095;SDS011;10207;50.942;6.900;2023-07-31T04:56:16;6.05;;;2.90;;
20095;SDS011;10207;50.942;6.900;2023-07-31T04:58:42;7.65;;;3.05;;
20095;SDS011;10207;50.942;6.900;2023-07-31T05:01:08;4.18;;;2.67;;
20095;SDS011;10207;50.942;6.900;2023-07-31T05:03:34;8.73;;;3.45;;
20095;SDS011;10207;50.942;6.900;2023-07-31T05:06:00;7.80;;;2.78;;
20095;SDS011;10207;50.942;6.900;2023-07-31T05:08:26;5.50;;;3.40;;
20095;SDS011;10207;50.942;6.900;2023-07-31T05:10:52;9.48;;;3.20;;
20095;SDS011;10207;50.942;6.900;2023-07-31T05:13:17;10.35;;;2.90;;
20095;SDS011;10207;50.942;6.900;2023-07-31T05:15:43;7.25;;;2.95;;
20095;SDS011;10207;50.942;6.900;2023-07-31T05:18:09;5.82;;;3.15;;
20095;SDS011;10207;50.942;6.900;2023-07-31T05:20:35;7.03;;;2.90;;
20095;SDS011;10207;50.942;6.900;2023-07-31T05:23:01;6.65;;;3.00;;
20095;SDS011;10207;50.942;6.900;2023-07-31T05:25:27;4.25;;;2.60;;
20095;SDS011;10207;50.942;6.900;2023-07-31T05:27:53;10.43;;;3.30;;
20095;SDS011;10207;50.942;6.900;2023-07-31T05:30:19;6.85;;;3.03;;
20095;SDS011;10207;50.942;6.900;2023-07-31T05:32:46;6.07;;;3.15;;
20095;SDS011;10207;50.942;6.900;2023-07-31T05:35:12;7.35;;;2.97;;
20095;SDS011;10207;50.942;6.900;2023-07-31T05:37:38;5.93;;;2.70;;
20095;SDS011;10207;50.942;6.900;2023-07-31T05:40:04;10.23;;;3.08;;
20095;SDS011;10207;50.942;6.900;2023-07-31T05:42:30;6.55;;;3.47;;
20095;SDS011;10207;50.942;6.900;2023-07-31T05:44:56;5.00;;;2.35;;
20095;SDS011;10207;50.942;6.900;2023-07-31T05:47:22;6.63;;;2.95;;
20095;SDS011;10207;50.942;6.900;2023-07-31T05:49:49;7.00;;;2.88;;
20095;SDS011;10207;50.942;6.900;2023-07-31T05:52:15;6.80;;;3.25;;
20095;SDS011;10207;50.942;6.900;2023-07-31T05:54:41;9.10;;;3.33;;
20095;SDS011;10207;50.942;6.900;2023-07-31T05:57:07;5.70;;;2.50;;
20095;SDS011;10207;50.942;6.900;2023-07-31T05:59:33;4.85;;;2.67;;
20095;SDS011;10207;50.942;6.900;2023-07-31T06:01:59;7.28;;;2.97;;
20095;SDS011;10207;50.942;6.900;2023-07-31T06:04:25;5.80;;;3.10;;
20095;SDS011;10207;50.942;6.900;2023-07-31T06:06:51;6.65;;;3.20;;
20095;SDS011;10207;50.942;6.900;2023-07-31T06:09:17;6.30;;;3.03;;
20095;SDS011;10207;50.942;6.900;2023-07-31T06:11:43;8.05;;;3.50;;
20095;SDS011;10207;50.942;6.900;2023-07-31T06:14:09;7.28;;;3.22;;
20095;SDS011;10207;50.942;6.900;2023-07-31T06:16:35;7.93;;;3.22;;
20095;SDS011;10207;50.942;6.900;2023-07-31T06:19:01;6.07;;;3.55;;
20095;SDS011;10207;50.942;6.900;2023-07-31T06:21:27;6.35;;;3.63;;
20095;SDS011;10207;50.942;6.900;2023-07-31T06:23:53;9.40;;;3.42;;
20095;SDS011;10207;50.942;6.900;2023-07-31T06:26:19;6.13;;;3.38;;
20095;SDS011;10207;50.942;6.900;2023-07-31T06:28:45;8.18;;;3.40;;
20095;SDS011;10207;50.942;6.900;2023-07-31T06:31:10;12.68;;;3.42;;
20095;SDS011;10207;50.942;6.900;2023-07-31T06:33:36;7.70;;;3.30;;
20095;SDS011;10207;50.942;6.900;2023-07-31T06:36:02;6.32;;;3.50;;
20095;SDS011;10207;50.942;6.900;2023-07-31T06:38:28;6.47;;;3.30;;
20095;SDS011;10207;50.942;6.900;2023-07-31T06:40:54;10.77;;;3.30;;
20095;SDS011;10207;50.942;6.900;2023-07-31T06:43:21;8.55;;;3.20;;
20095;SDS011;10207;50.942;6.900;2023-07-31T06:45:47;9.27;;;3.03;;
20095;SDS011;10207;50.942;6.900;2023-07-31T06:48:16;8.13;;;3.55;;
20095;SDS011;10207;50.942;6.900;2023-07-31T06:50:42;9.00;;;3.38;;
20095;SDS011;10207;50.942;6.900;2023-07-31T06:53:08;10.45;;;3.45;;
20095;SDS011;10207;50.942;6.900;2023-07-31T06:55:34;7.60;;;3.17;;
20095;SDS011;10207;50.942;6.900;2023-07-31T06:58:00;6.50;;;3.70;;
20095;SDS011;10207;50.942;6.900;2023-07-31T07:00:26;8.00;;;3.33;;
20095;SDS011;10207;50.942;6.900;2023-07-31T07:02:53;9.38;;;4.00;;
20095;SDS011;10207;50.942;6.900;2023-07-31T07:05:18;7.70;;;3.50;;
20095;SDS011;10207;50.942;6.900;2023-07-31T07:07:45;6.40;;;3.08;;
20095;SDS011;10207;50.942;6.900;2023-07-31T07:10:11;6.80;;;3.65;;
20095;SDS011;10207;50.942;6.900;2023-07-31T07:12:38;6.18;;;3.05;;
20095;SDS011;10207;50.942;6.900;2023-07-31T07:15:04;8.02;;;2.90;;
20095;SDS011;10207;50.942;6.900;2023-07-31T07:17:32;6.32;;;3.13;;
20095;SDS011;10207;50.942;6.900;2023-07-31T07:19:58;5.97;;;2.90;;
20095;SDS011;10207;50.942;6.900;2023-07-31T07:22:24;5.70;;;3.70;;
20095;SDS011;10207;50.942;6.900;2023-07-31T07:24:51;7.55;;;3.20;;
20095;SDS011;10207;50.942;6.900;2023-07-31T07:27:17;5.43;;;3.53;;
20095;SDS011;10207;50.942;6.900;2023-07-31T07:29:43;9.10;;;3.72;;
20095;SDS011;10207;50.942;6.900;2023-07-31T07:32:09;10.43;;;4.13;;
20095;SDS011;10207;50.942;6.900;2023-07-31T07:34:35;10.88;;;3.30;;
20095;SDS011;10207;50.942;6.900;2023-07-31T07:37:00;9.88;;;3.92;;
20095;SDS011;10207;50.942;6.900;2023-07-31T07:39:26;9.30;;;3.75;;
20095;SDS011;10207;50.942;6.900;2023-07-31T07:41:52;9.60;;;3.80;;
20095;SDS011;10207;50.942;6.900;2023-07-31T07:44:19;8.90;;;3.13;;
20095;SDS011;10207;50.942;6.900;2023-07-31T07:46:45;9.20;;;3.25;;
20095;SDS011;10207;50.942;6.900;2023-07-31T07:49:11;7.32;;;2.83;;
20095;SDS011;10207;50.942;6.900;2023-07-31T07:51:37;8.68;;;3.38;;
20095;SDS011;10207;50.942;6.900;2023-07-31T07:54:03;6.32;;;3.35;;
20095;SDS011;10207;50.942;6.900;2023-07-31T07:56:29;10.10;;;3.60;;
20095;SDS011;10207;50.942;6.900;2023-07-31T07:58:55;6.93;;;3.05;;
20095;SDS011;10207;50.942;6.900;2023-07-31T08:01:21;6.75;;;3.45;;
20095;SDS011;10207;50.942;6.900;2023-07-31T08:03:47;10.80;;;4.47;;
20095;SDS011;10207;50.942;6.900;2023-07-31T08:06:13;8.65;;;2.95;;
20095;SDS011;10207;50.942;6.900;2023-07-31T08:08:39;7.53;;;3.30;;
20095;SDS011;10207;50.942;6.900;2023-07-31T08:11:05;8.80;;;4.03;;
20095;SDS011;10207;50.942;6.900;2023-07-31T08:13:31;9.15;;;3.63;;
20095;SDS011;10207;50.942;6.900;2023-07-31T08:15:57;6.72;;;2.90;;
20095;SDS011;10207;50.942;6.900;2023-07-31T08:18:23;7.97;;;2.95;;
20095;SDS011;10207;50.942;6.900;2023-07-31T08:20:49;7.78;;;2.63;;
20095;SDS011;10207;50.942;6.900;2023-07-31T08:23:15;9.07;;;2.95;;
20095;SDS011;10207;50.942;6.900;2023-07-31T08:25:41;7.00;;;3.67;;
20095;SDS011;10207;50.942;6.900;2023-07-31T08:28:07;6.47;;;3.00;;
20095;SDS011;10207;50.942;6.900;2023-07-31T08:30:33;4.53;;;2.60;;
20095;SDS011;10207;50.942;6.900;2023-07-31T08:32:59;8.15;;;2.75;;
20095;SDS011;10207;50.942;6.900;2023-07-31T08:35:26;5.75;;;2.70;;
20095;SDS011;10207;50.942;6.900;2023-07-31T08:37:53;4.75;;;2.25;;
20095;SDS011;10207;50.942;6.900;2023-07-31T08:40:19;4.22;;;2.20;;
20095;SDS011;10207;50.942;6.900;2023-07-31T08:42:47;5.68;;;2.05;;
20095;SDS011;10207;50.942;6.900;2023-07-31T08:45:15;6.70;;;2.30;;
20095;SDS011;10207;50.942;6.900;2023-07-31T08:47:44;5.05;;;2.53;;
20095;SDS011;10207;50.942;6.900;2023-07-31T08:50:11;5.68;;;2.58;;
20095;SDS011;10207;50.942;6.900;2023-07-31T08:52:38;5.05;;;2.75;;
20095;SDS011;10207;50.942;6.900;2023-07-31T08:55:04;7.32;;;2.95;;
20095;SDS011;10207;50.942;6.900;2023-07-31T08:57:30;7.78;;;2.45;;
20095;SDS011;10207;50.942;6.900;2023-07-31T08:59:57;6.07;;;2.15;;
20095;SDS011;10207;50.942;6.900;2023-07-31T09:02:23;5.30;;;2.10;;
20095;SDS011;10207;50.942;6.900;2023-07-31T09:04:50;5.07;;;2.08;;
20095;SDS011;10207;50.942;6.900;2023-07-31T09:07:16;3.97;;;2.03;;
20095;SDS011;10207;50.942;6.900;2023-07-31T09:09:42;5.15;;;2.10;;
20095;SDS011;10207;50.942;6.900;2023-07-31T09:12:08;7.15;;;2.65;;
20095;SDS011;10207;50.942;6.900;2023-07-31T09:14:34;4.90;;;2.13;;
20095;SDS011;10207;50.942;6.900;2023-07-31T09:17:01;8.77;;;2.22;;
20095;SDS011;10207;50.942;6.900;2023-07-31T09:21:53;3.58;;;1.67;;
20095;SDS011;10207;50.942;6.900;2023-07-31T09:24:28;4.78;;;2.10;;
20095;SDS011;10207;50.942;6.900;2023-07-31T09:26:56;2.50;;;1.58;;
20095;SDS011;10207;50.942;6.900;2023-07-31T09:29:22;5.82;;;1.98;;
20095;SDS011;10207;50.942;6.900;2023-07-31T09:31:48;4.93;;;2.17;;
20095;SDS011;10207;50.942;6.900;2023-07-31T09:34:14;5.10;;;2.10;;
20095;SDS011;10207;50.942;6.900;2023-07-31T09:36:41;5.60;;;2.13;;
20095;SDS011;10207;50.942;6.900;2023-07-31T09:39:08;7.47;;;2.13;;
20095;SDS011;10207;50.942;6.900;2023-07-31T09:41:38;5.30;;;1.80;;
20095;SDS011;10207;50.942;6.900;2023-07-31T09:44:04;5.05;;;2.20;;
20095;SDS011;10207;50.942;6.900;2023-07-31T09:46:30;3.67;;;1.55;;
20095;SDS011;10207;50.942;6.900;2023-07-31T09:49:03;4.60;;;1.50;;
20095;SDS011;10207;50.942;6.900;2023-07-31T09:51:30;4.97;;;2.22;;
20095;SDS011;10207;50.942;6.900;2023-07-31T09:53:56;3.92;;;1.95;;
20095;SDS011;10207;50.942;6.900;2023-07-31T09:56:22;3.83;;;1.42;;
20095;SDS011;10207;50.942;6.900;2023-07-31T09:58:49;6.72;;;2.33;;
20095;SDS011;10207;50.942;6.900;2023-07-31T10:01:15;4.38;;;1.75;;
20095;SDS011;10207;50.942;6.900;2023-07-31T10:03:42;4.32;;;1.80;;
20095;SDS011;10207;50.942;6.900;2023-07-31T10:06:10;2.72;;;1.73;;
20095;SDS011;10207;50.942;6.900;2023-07-31T10:08:36;4.03;;;1.98;;
20095;SDS011;10207;50.942;6.900;2023-07-31T10:11:02;3.00;;;1.85;;
20095;SDS011;10207;50.942;6.900;2023-07-31T10:13:31;4.97;;;1.80;;
20095;SDS011;10207;50.942;6.900;2023-07-31T10:15:58;4.63;;;1.65;;
20095;SDS011;10207;50.942;6.900;2023-07-31T10:18:24;3.65;;;1.95;;
20095;SDS011;10207;50.942;6.900;2023-07-31T10:20:51;3.45;;;2.10;;
20095;SDS011;10207;50.942;6.900;2023-07-31T10:23:17;6.97;;;2.13;;
20095;SDS011;10207;50.942;6.900;2023-07-31T10:25:44;3.63;;;2.20;;
20095;SDS011;10207;50.942;6.900;2023-07-31T10:28:10;5.03;;;2.05;;
20095;SDS011;10207;50.942;6.900;2023-07-31T10:30:36;4.78;;;2.03;;
20095;SDS011;10207;50.942;6.900;2023-07-31T10:33:03;4.43;;;2.00;;
20095;SDS011;10207;50.942;6.900;2023-07-31T10:35:30;7.13;;;1.90;;
20095;SDS011;10207;50.942;6.900;2023-07-31T10:37:56;4.13;;;1.85;;
20095;SDS011;10207;50.942;6.900;2023-07-31T10:40:34;4.85;;;2.15;;
20095;SDS011;10207;50.942;6.900;2023-07-31T10:43:00;3.60;;;2.08;;
20095;SDS011;10207;50.942;6.900;2023-07-31T10:45:33;9.63;;;2.05;;
20095;SDS011;10207;50.942;6.900;2023-07-31T10:48:00;8.10;;;1.98;;
20095;SDS011;10207;50.942;6.900;2023-07-31T10:50:26;3.30;;;1.77;;
20095;SDS011;10207;50.942;6.900;2023-07-31T10:52:54;4.38;;;1.80;;
20095;SDS011;10207;50.942;6.900;2023-07-31T10:55:24;3.70;;;1.38;;
20095;SDS011;10207;50.942;6.900;2023-07-31T10:57:51;2.05;;;1.05;;
20095;SDS011;10207;50.942;6.900;2023-07-31T11:00:22;5.75;;;1.23;;
20095;SDS011;10207;50.942;6.900;2023-07-31T11:02:58;3.30;;;1.27;;
20095;SDS011;10207;50.942;6.900;2023-07-31T11:08:31;5.15;;;1.52;;
20095;SDS011;10207;50.942;6.900;2023-07-31T11:13:31;2.03;;;1.15;;
20095;SDS011;10207;50.942;6.900;2023-07-31T11:15:57;4.10;;;1.17;;
20095;SDS011;10207;50.942;6.900;2023-07-31T11:18:23;2.47;;;1.23;;
20095;SDS011;10207;50.942;6.900;2023-07-31T11:20:49;3.28;;;1.10;;
20095;SDS011;10207;50.942;6.900;2023-07-31T11:23:16;2.97;;;1.02;;
20095;SDS011;10207;50.942;6.900;2023-07-31T11:25:42;2.35;;;0.90;;
20095;SDS011;10207;50.942;6.900;2023-07-31T11:28:09;3.35;;;0.93;;
20095;SDS011;10207;50.942;6.900;2023-07-31T11:30:36;1.88;;;0.70;;
20095;SDS011;10207;50.942;6.900;2023-07-31T11:33:03;2.15;;;0.73;;
20095;SDS011;10207;50.942;6.900;2023-07-31T11:35:29;2.38;;;0.60;;
20095;SDS011;10207;50.942;6.900;2023-07-31T11:37:55;0.70;;;0.40;;
20095;SDS011;10207;50.942;6.900;2023-07-31T11:40:21;1.33;;;0.60;;
20095;SDS011;10207;50.942;6.900;2023-07-31T11:42:47;1.63;;;0.60;;
20095;SDS011;10207;50.942;6.900;2023-07-31T11:45:13;4.20;;;0.90;;
20095;SDS011;10207;50.942;6.900;2023-07-31T11:47:39;0.75;;;0.52;;
20095;SDS011;10207;50.942;6.900;2023-07-31T11:50:09;0.80;;;0.43;;
20095;SDS011;10207;50.942;6.900;2023-07-31T11:52:37;0.80;;;0.50;;
20095;SDS011;10207;50.942;6.900;2023-07-31T11:55:06;0.88;;;0.40;;
20095;SDS011;10207;50.942;6.900;2023-07-31T11:57:35;2.70;;;0.70;;
20095;SDS011;10207;50.942;6.900;2023-07-31T12:00:02;3.17;;;0.77;;
20095;SDS011;10207;50.942;6.900;2023-07-31T12:02:30;1.80;;;0.70;;
20095;SDS011;10207;50.942;6.900;2023-07-31T12:04:56;1.27;;;0.40;;
20095;SDS011;10207;50.942;6.900;2023-07-31T12:07:23;1.50;;;0.70;;
20095;SDS011;10207;50.942;6.900;2023-07-31T12:09:55;1.27;;;0.60;;
20095;SDS011;10207;50.942;6.900;2023-07-31T12:12:22;1.75;;;0.40;;
20095;SDS011;10207;50.942;6.900;2023-07-31T12:14:49;3.63;;;0.50;;
20095;SDS011;10207;50.942;6.900;2023-07-31T12:17:17;2.15;;;0.57;;
20095;SDS011;10207;50.942;6.900;2023-07-31T12:19:43;0.47;;;0.30;;
20095;SDS011;10207;50.942;6.900;2023-07-31T12:22:12;2.88;;;0.70;;
20095;SDS011;10207;50.942;6.900;2023-07-31T12:24:39;2.65;;;0.80;;
20095;SDS011;10207;50.942;6.900;2023-07-31T12:27:09;1.77;;;0.60;;
20095;SDS011;10207;50.942;6.900;2023-07-31T12:29:35;1.90;;;1.10;;
20095;SDS011;10207;50.942;6.900;2023-07-31T12:32:04;2.30;;;0.77;;
20095;SDS011;10207;50.942;6.900;2023-07-31T12:34:30;1.67;;;0.80;;
20095;SDS011;10207;50.942;6.900;2023-07-31T12:36:56;1.17;;;0.70;;
20095;SDS011;10207;50.942;6.900;2023-07-31T12:39:22;2.08;;;0.60;;
20095;SDS011;10207;50.942;6.900;2023-07-31T12:41:47;1.05;;;0.70;;
20095;SDS011;10207;50.942;6.900;2023-07-31T12:44:13;2.25;;;1.00;;
20095;SDS011;10207;50.942;6.900;2023-07-31T12:46:39;1.42;;;0.82;;
20095;SDS011;10207;50.942;6.900;2023-07-31T12:49:05;2.10;;;0.77;;
20095;SDS011;10207;50.942;6.900;2023-07-31T12:51:31;2.00;;;1.13;;
20095;SDS011;10207;50.942;6.900;2023-07-31T12:53:57;1.98;;;0.90;;
20095;SDS011;10207;50.942;6.900;2023-07-31T12:56:23;2.80;;;1.20;;
20095;SDS011;10207;50.942;6.900;2023-07-31T12:58:49;1.92;;;1.10;;
20095;SDS011;10207;50.942;6.900;2023-07-31T13:01:15;2.67;;;1.48;;
20095;SDS011;10207;50.942;6.900;2023-07-31T13:03:41;2.70;;;1.67;;
20095;SDS011;10207;50.942;6.900;2023-07-31T13:06:07;2.17;;;1.40;;
20095;SDS011;10207;50.942;6.900;2023-07-31T13:08:33;4.10;;;1.75;;
20095;SDS011;10207;50.942;6.900;2023-07-31T13:10:59;5.38;;;2.05;;
20095;SDS011;10207;50.942;6.900;2023-07-31T13:13:24;3.67;;;1.30;;
20095;SDS011;10207;50.942;6.900;2023-07-31T13:15:50;2.10;;;1.40;;
20095;SDS011;10207;50.942;6.900;2023-07-31T13:18:16;3.33;;;1.38;;
20095;SDS011;10207;50.942;6.900;2023-07-31T13:20:42;2.70;;;1.48;;
20095;SDS011;10207;50.942;6.900;2023-07-31T13:23:08;3.42;;;2.00;;
20095;SDS011;10207;50.942;6.900;2023-07-31T13:25:34;3.30;;;1.73;;
20095;SDS011;10207;50.942;6.900;2023-07-31T13:28:00;3.40;;;1.50;;
20095;SDS011;10207;50.942;6.900;2023-07-31T13:30:26;3.33;;;1.67;;
20095;SDS011;10207;50.942;6.900;2023-07-31T13:32:53;2.67;;;1.40;;
20095;SDS011;10207;50.942;6.900;2023-07-31T13:35:19;3.15;;;1.60;;
20095;SDS011;10207;50.942;6.900;2023-07-31T13:37:45;3.13;;;1.50;;
20095;SDS011;10207;50.942;6.900;2023-07-31T13:40:11;2.17;;;1.50;;
20095;SDS011;10207;50.942;6.900;2023-07-31T13:42:37;2.00;;;1.40;;
20095;SDS011;10207;50.942;6.900;2023-07-31T13:45:03;2.42;;;1.50;;
20095;SDS011;10207;50.942;6.900;2023-07-31T13:47:29;3.30;;;1.77;;
20095;SDS011;10207;50.942;6.900;2023-07-31T13:49:55;2.40;;;1.30;;
20095;SDS011;10207;50.942;6.900;2023-07-31T13:52:21;2.47;;;1.63;;
20095;SDS011;10207;50.942;6.900;2023-07-31T13:54:47;2.70;;;1.20;;
20095;SDS011;10207;50.942;6.900;2023-07-31T13:57:13;2.30;;;1.38;;
20095;SDS011;10207;50.942;6.900;2023-07-31T13:59:39;2.63;;;1.23;;
20095;SDS011;10207;50.942;6.900;2023-07-31T14:02:05;2.58;;;1.40;;
20095;SDS011;10207;50.942;6.900;2023-07-31T14:04:31;2.42;;;1.00;;
20095;SDS011;10207;50.942;6.900;2023-07-31T14:06:57;2.92;;;1.73;;
20095;SDS011;10207;50.942;6.900;2023-07-31T14:09:23;6.95;;;1.80;;
20095;SDS011;10207;50.942;6.900;2023-07-31T14:11:48;4.53;;;1.90;;
20095;SDS011;10207;50.942;6.900;2023-07-31T14:14:14;3.60;;;1.80;;
20095;SDS011;10207;50.942;6.900;2023-07-31T14:16:40;3.03;;;1.30;;
20095;SDS011;10207;50.942;6.900;2023-07-31T14:19:06;2.78;;;1.52;;
20095;SDS011;10207;50.942;6.900;2023-07-31T14:21:34;2.95;;;1.55;;
20095;SDS011;10207;50.942;6.900;2023-07-31T14:24:00;2.80;;;1.73;;
20095;SDS011;10207;50.942;6.900;2023-07-31T14:26:25;3.58;;;1.23;;
20095;SDS011;10207;50.942;6.900;2023-07-31T14:28:51;2.20;;;1.35;;
20095;SDS011;10207;50.942;6.900;2023-07-31T14:31:17;3.45;;;1.67;;
20095;SDS011;10207;50.942;6.900;2023-07-31T14:33:43;3.72;;;1.75;;
20095;SDS011;10207;50.942;6.900;2023-07-31T14:36:09;3.53;;;1.58;;
20095;SDS011;10207;50.942;6.900;2023-07-31T14:38:36;3.47;;;1.70;;
20095;SDS011;10207;50.942;6.900;2023-07-31T14:41:02;4.05;;;1.58;;
20095;SDS011;10207;50.942;6.900;2023-07-31T14:43:28;2.67;;;1.70;;
20095;SDS011;10207;50.942;6.900;2023-07-31T14:45:54;4.38;;;1.90;;
20095;SDS011;10207;50.942;6.900;2023-07-31T14:48:23;2.45;;;1.98;;
20095;SDS011;10207;50.942;6.900;2023-07-31T14:50:49;3.80;;;1.60;;